CDT,Max TemperatureF,Mean TemperatureF,Min TemperatureF,Max Dew PointF,MeanDew PointF,Min DewpointF,Max Humidity, Mean Humidity, Min Humidity, Max Sea Level PressureIn, Mean Sea Level PressureIn, Min Sea Level PressureIn, Max VisibilityMiles, Mean VisibilityMiles, Min VisibilityMiles, Max Wind SpeedMPH, Mean Wind SpeedMPH, Max Gust SpeedMPH,PrecipitationIn, CloudCover, Events, WindDirDegrees
2013-9-1,86,77,68,73,70,62,100,86,59,29.86,29.80,29.75,10,5,0,13,7,,0.00,6,Fog,346
2013-9-2,82,72,61,63,60,57,93,66,42,29.98,29.90,29.81,10,10,10,14,11,,0.00,1,,343
2013-9-3,79,66,55,61,57,53,100,86,42,30.11,30.05,29.99,10,5,0,8,5,,0.00,4,Fog,30
2013-9-4,84,70,56,60,56,52,93,65,32,30.16,30.12,30.08,10,10,10,9,6,,0.00,0,,237
2013-9-5,88,76,63,67,61,56,81,65,44,30.20,30.17,30.13,10,10,10,13,6,,0.00,0,,34
2013-9-6,88,72,57,65,61,54,87,68,45,30.19,30.13,30.03,10,10,10,13,7,16,0.00,0,,170
2013-9-7,88,75,64,67,63,60,93,69,40,30.04,29.97,29.91,10,10,9,17,9,,0.00,0,Rain,213
2013-9-8,88,79,70,70,69,66,97,79,50,29.99,29.94,29.89,10,8,0,14,7,16,0.57,3,Fog-Rain-Thunderstorm,128
2013-9-9,95,82,70,74,71,68,97,75,47,29.93,29.90,29.85,10,8,3,17,9,,0.00,0,,199
2013-9-10,95,82,70,71,67,63,87,63,34,30.05,30.01,29.94,10,10,10,18,10,26,0.00,0,,222
2013-9-11,95,82,70,70,66,59,90,62,31,30.09,30.03,29.99,10,10,10,15,10,23,0.00,1,,256
2013-9-12,84,72,59,70,62,46,97,71,29,30.07,30.01,29.96,10,8,1,22,8,29,0.31,3,Rain,307
2013-9-13,70,61,50,54,47,41,94,65,34,30.18,30.13,30.06,10,10,10,15,10,18,0.00,2,,18
2013-9-14,72,58,45,46,42,39,90,61,30,30.21,30.14,30.07,10,10,10,12,6,,0.00,0,,147
2013-9-15,70,61,52,61,54,46,100,78,48,30.15,30.07,29.99,10,9,2,20,11,24,0.01,6,Rain,249
2013-9-16,73,61,48,57,53,47,100,78,43,30.33,30.26,30.16,10,8,2,18,12,18,0.00,5,,46
2013-9-17,75,60,45,55,51,45,97,72,45,30.32,30.23,30.11,10,9,7,14,8,,0.00,1,Rain,116
2013-9-18,86,72,61,70,63,54,93,72,53,30.10,30.02,29.94,10,10,5,18,11,,0.01,2,Rain,179
2013-9-19,92,80,70,71,69,66,97,72,43,29.96,29.90,29.80,10,8,4,22,13,28,0.00,1,Rain,207
2013-9-20,72,67,55,68,63,49,100,85,56,29.94,29.87,29.82,10,8,2,24,13,41,0.31,5,Rain-Thunderstorm,268
2013-9-21,70,61,52,52,48,44,90,67,39,29.96,29.91,29.86,10,10,10,15,10,21,0.00,1,,326
2013-9-22,73,58,45,47,46,43,93,67,34,30.06,30.01,29.96,10,10,10,12,6,,0.00,0,,53
2013-9-23,77,60,43,49,45,41,97,64,28,30.09,30.04,30.00,10,10,10,12,8,21,0.00,0,,114
2013-9-24,79,62,46,55,50,45,93,66,39,30.02,29.95,29.89,10,10,10,12,8,,0.00,0,,111
2013-9-25,82,66,50,56,52,47,89,67,38,29.94,29.90,29.88,10,10,10,14,8,,0.00,1,,55
2013-9-26,83,66,50,55,49,45,93,60,28,30.06,30.01,29.94,10,9,5,9,7,,0.00,0,,114
2013-9-27,83,66,50,54,49,45,86,56,27,30.16,30.09,30.04,10,10,10,13,6,18,0.00,0,,149
2013-9-28,84,70,55,65,56,52,89,63,37,30.08,30.00,29.93,10,10,5,26,13,32,0.00,3,Rain,185
2013-9-29,72,62,50,66,53,41,100,80,33,30.09,30.02,29.97,10,6,0,17,10,17,0.32,4,Fog-Rain,347
2013-9-30,77,61,45,59,52,45,97,76,39,30.02,29.96,29.90,10,10,9,15,7,16,0.00,0,,163